createdAt,value
2023-03-11T00:01:07.835Z,1.40
2023-03-11T00:03:34.975Z,1.40
2023-03-11T00:06:03.160Z,1.40
2023-03-11T00:08:30.941Z,1.50
2023-03-11T00:11:00.700Z,1.40
2023-03-11T00:13:29.831Z,1.40
2023-03-11T00:15:57.936Z,1.50
2023-03-11T00:18:28.033Z,1.40
2023-03-11T00:20:56.526Z,1.40
2023-03-11T00:23:24.047Z,1.40
2023-03-11T00:25:51.461Z,1.40
2023-03-11T00:28:18.919Z,1.40
2023-03-11T00:30:46.794Z,1.40
2023-03-11T00:33:16.050Z,1.40
2023-03-11T00:35:44.075Z,1.40
2023-03-11T00:38:15.292Z,1.30
2023-03-11T00:40:43.608Z,1.30
2023-03-11T00:43:11.085Z,1.30
2023-03-11T00:45:38.716Z,1.30
2023-03-11T00:48:06.687Z,1.30
2023-03-11T00:50:35.972Z,1.20
2023-03-11T00:53:04.498Z,1.20
2023-03-11T00:55:33.614Z,1.20
2023-03-11T00:58:05.611Z,1.10
2023-03-11T01:00:40.130Z,1.10
2023-03-11T01:03:07.561Z,1.00
2023-03-11T01:05:35.515Z,1.00
2023-03-11T01:08:03.861Z,1.10
2023-03-11T01:10:32.880Z,1.00
2023-03-11T01:13:00.366Z,1.00
2023-03-11T01:15:34.333Z,1.10
2023-03-11T01:18:02.159Z,1.10
2023-03-11T01:20:29.456Z,1.10
2023-03-11T01:22:57.093Z,1.10
2023-03-11T01:25:25.178Z,1.10
2023-03-11T01:27:52.416Z,1.10
2023-03-11T01:30:22.929Z,1.10
2023-03-11T01:32:52.510Z,1.10
2023-03-11T01:35:21.780Z,1.20
2023-03-11T01:37:49.110Z,1.20
2023-03-11T01:40:24.515Z,1.20
2023-03-11T01:42:51.810Z,1.20
2023-03-11T01:45:29.573Z,1.20
2023-03-11T01:47:57.204Z,1.20
2023-03-11T01:50:27.704Z,1.30
2023-03-11T01:52:54.860Z,1.30
2023-03-11T01:55:22.022Z,1.40
2023-03-11T01:57:50.383Z,1.50
2023-03-11T02:00:18.583Z,1.60
2023-03-11T02:02:53.773Z,1.60
2023-03-11T02:05:23.402Z,1.60
2023-03-11T02:07:53.662Z,1.60
2023-03-11T02:10:21.895Z,1.60
2023-03-11T02:12:50.616Z,1.60
2023-03-11T02:15:25.970Z,1.50
2023-03-11T02:17:56.443Z,1.50
2023-03-11T02:20:47.058Z,1.50
2023-03-11T02:23:16.047Z,1.50
2023-03-11T02:26:12.847Z,1.40
2023-03-11T02:28:42.330Z,1.30
2023-03-11T02:31:10.568Z,1.20
2023-03-11T02:33:38.034Z,1.10
2023-03-11T02:36:05.841Z,1.10
2023-03-11T02:38:33.207Z,1.00
2023-03-11T02:41:02.608Z,1.00
2023-03-11T02:43:42.082Z,1.00
2023-03-11T02:46:12.536Z,1.00
2023-03-11T02:48:40.377Z,0.90
2023-03-11T02:51:07.811Z,0.90
2023-03-11T02:53:41.788Z,0.90
2023-03-11T02:56:09.050Z,0.90
2023-03-11T02:58:36.172Z,0.90
2023-03-11T03:01:03.668Z,0.90
2023-03-11T03:03:30.884Z,0.90
2023-03-11T03:05:58.135Z,1.00
2023-03-11T03:08:25.390Z,1.00
2023-03-11T03:10:53.651Z,0.90
2023-03-11T03:13:20.766Z,0.90
2023-03-11T03:15:47.999Z,0.90
2023-03-11T03:18:15.115Z,0.90
2023-03-11T03:20:42.355Z,0.90
2023-03-11T03:23:09.588Z,0.90
2023-03-11T03:25:37.264Z,0.90
2023-03-11T03:28:07.853Z,0.90
2023-03-11T03:30:38.620Z,0.90
2023-03-11T03:33:07.288Z,0.80
2023-03-11T03:35:34.758Z,0.80
2023-03-11T03:38:05.698Z,0.80
2023-03-11T03:40:33.837Z,0.70
2023-03-11T03:43:04.879Z,0.70
2023-03-11T03:45:33.524Z,0.70
2023-03-11T03:48:00.914Z,0.70
2023-03-11T03:50:31.757Z,0.80
2023-03-11T03:52:58.968Z,0.70
2023-03-11T03:55:26.981Z,0.70
2023-03-11T03:57:54.723Z,0.70
2023-03-11T04:00:25.446Z,0.70
2023-03-11T04:02:58.290Z,0.70
2023-03-11T04:05:33.764Z,0.70
2023-03-11T04:08:01.151Z,0.60
2023-03-11T04:10:29.015Z,0.60
2023-03-11T04:12:56.225Z,0.60
2023-03-11T04:15:23.657Z,0.70
2023-03-11T04:17:50.876Z,0.60
2023-03-11T04:20:19.238Z,0.60
2023-03-11T04:22:49.167Z,0.60
2023-03-11T04:25:17.753Z,0.60
2023-03-11T04:27:46.366Z,0.50
2023-03-11T04:30:14.682Z,0.50
2023-03-11T04:32:43.678Z,0.50
2023-03-11T04:35:11.607Z,0.50
2023-03-11T04:37:39.154Z,0.40
2023-03-11T04:40:07.275Z,0.40
2023-03-11T04:42:35.066Z,0.40
2023-03-11T04:45:02.404Z,0.40
2023-03-11T04:47:31.310Z,0.40
2023-03-11T04:49:58.996Z,0.40
2023-03-11T04:52:26.558Z,0.40
2023-03-11T04:54:54.049Z,0.40
2023-03-11T04:57:21.778Z,0.50
2023-03-11T04:59:49.309Z,0.50
2023-03-11T05:02:16.721Z,0.50
2023-03-11T05:04:51.556Z,0.50
2023-03-11T05:07:18.845Z,0.40
2023-03-11T05:09:46.926Z,0.40
2023-03-11T05:12:14.128Z,0.40
2023-03-11T05:14:43.907Z,0.40
2023-03-11T05:17:13.408Z,0.40
2023-03-11T05:19:41.281Z,0.40
2023-03-11T05:22:17.930Z,0.40
2023-03-11T05:24:47.018Z,0.40
2023-03-11T05:27:18.037Z,0.40
2023-03-11T05:29:48.339Z,0.40
2023-03-11T05:32:16.866Z,0.50
2023-03-11T05:34:46.388Z,0.50
2023-03-11T05:37:15.440Z,0.50
2023-03-11T05:39:42.850Z,0.50
2023-03-11T05:42:10.603Z,0.60
2023-03-11T05:44:37.876Z,0.60
2023-03-11T05:47:05.676Z,0.60
2023-03-11T05:49:33.415Z,0.70
2023-03-11T05:52:00.804Z,0.70
2023-03-11T05:54:29.380Z,0.70
2023-03-11T05:56:56.596Z,0.70
2023-03-11T05:59:24.811Z,0.60
2023-03-11T06:01:57.516Z,0.60
2023-03-11T06:04:25.344Z,0.60
2023-03-11T06:06:52.721Z,0.50
2023-03-11T06:09:22.936Z,0.50
2023-03-11T06:11:51.808Z,0.50
2023-03-11T06:14:21.147Z,0.40
2023-03-11T06:16:50.794Z,0.40
2023-03-11T06:19:20.526Z,0.40
2023-03-11T06:21:51.108Z,0.30
2023-03-11T06:24:19.288Z,0.30
2023-03-11T06:26:50.846Z,0.30
2023-03-11T06:29:18.436Z,0.20
2023-03-11T06:31:47.624Z,0.20
2023-03-11T06:34:15.654Z,0.20
2023-03-11T06:36:42.971Z,0.20
2023-03-11T06:39:15.760Z,0.20
2023-03-11T06:41:45.346Z,0.20
2023-03-11T06:44:13.881Z,0.10
2023-03-11T06:46:42.369Z,0.10
2023-03-11T06:49:09.584Z,0.10
2023-03-11T06:51:38.167Z,0.10
2023-03-11T06:54:05.729Z,0.10
2023-03-11T06:56:33.281Z,0.10
2023-03-11T06:59:05.429Z,0.10
2023-03-11T07:01:34.504Z,0.10
2023-03-11T07:04:04.532Z,0.20
2023-03-11T07:06:32.561Z,0.10
2023-03-11T07:09:06.013Z,0.20
2023-03-11T07:11:35.701Z,0.20
2023-03-11T07:14:13.204Z,0.20
2023-03-11T07:16:45.325Z,0.20
2023-03-11T07:19:28.320Z,0.20
2023-03-11T07:21:55.484Z,0.20
2023-03-11T07:24:22.833Z,0.30
2023-03-11T07:26:49.975Z,0.30
2023-03-11T07:29:17.251Z,0.30
2023-03-11T07:31:44.551Z,0.30
2023-03-11T07:34:12.884Z,0.30
2023-03-11T07:36:42.124Z,0.40
2023-03-11T07:39:15.480Z,0.40
2023-03-11T07:41:42.840Z,0.50
2023-03-11T07:44:13.654Z,0.50
2023-03-11T07:46:40.901Z,0.50
2023-03-11T07:49:08.147Z,0.60
2023-03-11T07:51:37.142Z,0.60
2023-03-11T07:54:05.266Z,0.60
2023-03-11T07:56:35.244Z,0.70
2023-03-11T07:59:04.101Z,0.70
2023-03-11T08:01:36.666Z,0.70
2023-03-11T08:04:06.147Z,0.70
2023-03-11T08:06:35.040Z,0.80
2023-03-11T08:09:08.178Z,0.80
2023-03-11T08:11:36.367Z,0.80
2023-03-11T08:14:04.451Z,0.90
2023-03-11T08:16:31.964Z,0.90
2023-03-11T08:18:59.186Z,0.90
2023-03-11T08:21:29.279Z,0.90
2023-03-11T08:24:02.230Z,0.90
2023-03-11T08:26:30.415Z,0.90
2023-03-11T08:28:58.904Z,1.00
2023-03-11T08:31:29.598Z,1.00
2023-03-11T08:34:02.912Z,1.00
2023-03-11T08:36:31.217Z,1.00
2023-03-11T08:38:58.806Z,1.00
2023-03-11T08:41:26.914Z,1.00
2023-03-11T08:43:54.327Z,1.00
2023-03-11T08:46:27.833Z,1.00
2023-03-11T08:48:56.092Z,1.00
2023-03-11T08:51:24.350Z,1.00
2023-03-11T08:53:52.079Z,1.10
2023-03-11T08:56:19.452Z,1.10
2023-03-11T08:58:47.578Z,1.10
2023-03-11T09:01:15.042Z,1.20
2023-03-11T09:03:42.216Z,1.20
2023-03-11T09:06:13.961Z,1.30
2023-03-11T09:08:42.111Z,1.30
2023-03-11T09:11:09.960Z,1.40
2023-03-11T09:13:37.229Z,1.40
2023-03-11T09:16:06.036Z,1.50
2023-03-11T09:18:33.277Z,1.50
2023-03-11T09:21:01.028Z,1.60
2023-03-11T09:23:28.403Z,1.60
2023-03-11T09:25:55.651Z,1.70
2023-03-11T09:28:23.241Z,1.70
2023-03-11T09:30:50.678Z,1.70
2023-03-11T09:33:17.916Z,1.80
2023-03-11T09:35:45.138Z,1.80
2023-03-11T09:38:12.293Z,1.90
2023-03-11T09:40:49.326Z,1.90
2023-03-11T09:43:22.068Z,1.90
2023-03-11T09:46:01.244Z,1.90
2023-03-11T09:49:29.716Z,1.90
2023-03-11T09:52:13.757Z,1.90
2023-03-11T09:54:53.707Z,2.00
2023-03-11T09:57:32.798Z,2.00
2023-03-11T10:00:05.504Z,2.00
2023-03-11T10:02:40.282Z,2.00
2023-03-11T10:05:25.875Z,2.00
2023-03-11T10:08:10.303Z,2.00
2023-03-11T10:10:45.844Z,2.00
2023-03-11T10:13:35.801Z,2.10
2023-03-11T10:16:29.447Z,2.10
2023-03-11T10:19:22.685Z,2.20
2023-03-11T10:22:04.843Z,2.30
2023-03-11T10:25:05.369Z,2.30
2023-03-11T10:28:01.882Z,2.30
2023-03-11T10:30:52.784Z,2.30
2023-03-11T10:33:46.607Z,2.40
2023-03-11T10:36:24.170Z,2.40
2023-03-11T10:38:53.560Z,2.30
2023-03-11T10:42:17.641Z,2.40
2023-03-11T10:44:44.976Z,2.40
2023-03-11T10:47:24.472Z,2.50
2023-03-11T10:49:55.610Z,2.50
2023-03-11T10:52:23.191Z,2.60
2023-03-11T10:55:00.884Z,2.60
2023-03-11T10:57:33.270Z,2.60
2023-03-11T11:00:09.833Z,2.50
2023-03-11T11:02:43.576Z,2.40
2023-03-11T11:05:23.093Z,2.50
2023-03-11T11:07:53.293Z,2.40
2023-03-11T11:10:23.991Z,2.50
2023-03-11T11:13:21.283Z,2.50
2023-03-11T11:15:59.196Z,2.60
2023-03-11T11:18:31.397Z,2.60
2023-03-11T11:21:08.541Z,2.60
2023-03-11T11:23:43.279Z,2.60
2023-03-11T11:26:21.930Z,2.60
2023-03-11T11:29:09.020Z,2.70
2023-03-11T11:31:47.358Z,2.80
2023-03-11T11:34:41.215Z,2.80
2023-03-11T11:37:14.681Z,2.80
2023-03-11T11:39:52.130Z,2.80
2023-03-11T11:42:20.752Z,2.80
2023-03-11T11:44:53.396Z,2.90
2023-03-11T11:47:45.327Z,2.90
2023-03-11T11:50:33.736Z,2.90
2023-03-11T11:53:52.671Z,3.00
2023-03-11T11:56:19.879Z,3.00
2023-03-11T11:58:47.022Z,3.00
2023-03-11T12:01:21.555Z,3.00
2023-03-11T12:04:03.014Z,3.10
2023-03-11T12:06:47.856Z,3.10
2023-03-11T12:09:35.063Z,3.10
2023-03-11T12:12:25.032Z,3.20
2023-03-11T12:15:03.818Z,3.20
2023-03-11T12:17:32.886Z,3.30
2023-03-11T12:20:14.938Z,3.30
2023-03-11T12:22:54.176Z,3.40
2023-03-11T12:25:41.829Z,3.40
2023-03-11T12:28:22.534Z,3.50
2023-03-11T12:30:56.472Z,3.50
2023-03-11T12:33:28.182Z,3.50
2023-03-11T12:35:58.297Z,3.50
2023-03-11T12:38:39.238Z,3.60
2023-03-11T12:41:13.686Z,3.70
2023-03-11T12:43:41.759Z,3.80
2023-03-11T12:46:19.747Z,3.70
2023-03-11T12:48:49.912Z,3.70
2023-03-11T12:51:37.608Z,3.70
2023-03-11T12:54:34.339Z,3.70
2023-03-11T12:57:40.705Z,3.70
2023-03-11T13:00:19.717Z,3.80
2023-03-11T13:03:08.745Z,3.90
2023-03-11T13:05:57.444Z,4.00
2023-03-11T13:08:29.221Z,4.10
2023-03-11T13:10:56.684Z,4.10
2023-03-11T13:13:33.602Z,4.10
2023-03-11T13:16:12.956Z,4.10
2023-03-11T13:18:42.315Z,4.10
2023-03-11T13:21:28.044Z,4.10
2023-03-11T13:24:25.979Z,4.10
2023-03-11T13:27:05.004Z,4.20
2023-03-11T13:29:47.841Z,4.30
2023-03-11T13:32:18.076Z,4.30
2023-03-11T13:39:37.007Z,4.30
2023-03-11T13:42:12.006Z,4.30
2023-03-11T13:44:41.337Z,4.40
2023-03-11T13:47:14.607Z,4.40
2023-03-11T13:50:08.677Z,4.50
2023-03-11T13:52:44.432Z,4.60
2023-03-11T13:55:46.520Z,4.70
2023-03-11T13:58:23.546Z,4.80
2023-03-11T14:00:56.850Z,4.80
2023-03-11T14:03:25.894Z,4.80
2023-03-11T14:06:01.223Z,4.80
2023-03-11T14:08:36.191Z,4.80
2023-03-11T14:11:12.344Z,4.80
2023-03-11T14:13:43.601Z,4.80
2023-03-11T14:16:36.127Z,4.80
2023-03-11T14:19:13.619Z,4.80
2023-03-11T14:21:47.085Z,4.80
2023-03-11T14:24:30.049Z,4.80
2023-03-11T14:27:01.489Z,4.80
2023-03-11T14:29:40.320Z,4.70
2023-03-11T14:32:26.546Z,4.80
2023-03-11T14:34:53.874Z,4.80
2023-03-11T14:37:41.233Z,4.80
2023-03-11T14:40:27.104Z,4.70
2023-03-11T14:42:59.279Z,4.70
2023-03-11T14:45:30.529Z,4.70
2023-03-11T14:48:12.999Z,4.70
2023-03-11T14:50:40.333Z,4.70
2023-03-11T14:53:17.819Z,4.70
2023-03-11T14:55:58.205Z,4.60
2023-03-11T14:58:34.710Z,4.50
2023-03-11T15:01:02.000Z,4.50
2023-03-11T15:03:31.992Z,4.50
2023-03-11T15:06:09.778Z,4.40
2023-03-11T15:08:47.357Z,4.40
2023-03-11T15:11:14.561Z,4.40
2023-03-11T15:13:44.233Z,4.50
2023-03-11T15:16:41.190Z,4.60
2023-03-11T15:19:29.510Z,4.60
2023-03-11T15:21:59.868Z,4.70
2023-03-11T15:24:31.491Z,4.70
2023-03-11T15:27:01.889Z,4.70
2023-03-11T15:29:31.125Z,4.80
2023-03-11T15:31:59.396Z,4.80
2023-03-11T15:34:32.119Z,4.90
2023-03-11T15:37:06.966Z,4.90
2023-03-11T15:39:34.151Z,5.00
2023-03-11T15:42:03.902Z,5.00
2023-03-11T15:44:41.894Z,5.10
2023-03-11T15:47:14.927Z,5.10
2023-03-11T15:49:42.622Z,5.10
2023-03-11T15:52:10.693Z,5.20
2023-03-11T15:54:38.229Z,5.20
2023-03-11T15:57:09.121Z,5.20
2023-03-11T16:00:43.569Z,5.30
2023-03-11T16:03:11.256Z,5.20
2023-03-11T16:05:38.662Z,5.30
2023-03-11T16:08:06.021Z,5.30
2023-03-11T16:10:33.413Z,5.30
2023-03-11T16:13:00.770Z,5.30
2023-03-11T16:15:33.825Z,5.40
2023-03-11T16:18:04.002Z,5.40
2023-03-11T16:20:46.808Z,5.40
2023-03-11T16:23:21.209Z,5.40
2023-03-11T16:25:49.295Z,5.40
2023-03-11T16:28:17.027Z,5.50
2023-03-11T16:30:44.706Z,5.40
2023-03-11T16:33:12.003Z,5.40
2023-03-11T16:35:39.425Z,5.40
2023-03-11T16:38:07.964Z,5.30
2023-03-11T16:40:35.561Z,5.20
2023-03-11T16:43:05.622Z,5.20
2023-03-11T16:45:33.414Z,5.10
2023-03-11T16:48:00.704Z,5.10
2023-03-11T16:50:28.312Z,5.10
2023-03-11T16:52:56.677Z,5.00
2023-03-11T16:55:25.803Z,5.00
2023-03-11T16:57:54.833Z,4.90
2023-03-11T17:00:22.144Z,4.90
2023-03-11T17:02:49.404Z,4.80
2023-03-11T17:05:17.081Z,4.80
2023-03-11T17:07:44.357Z,4.70
2023-03-11T17:10:12.722Z,4.70
2023-03-11T17:12:39.987Z,4.60
2023-03-11T17:15:08.309Z,4.50
2023-03-11T17:17:35.942Z,4.50
2023-03-11T17:20:04.092Z,4.40
2023-03-11T17:22:32.564Z,4.40
2023-03-11T17:24:59.921Z,4.40
2023-03-11T17:27:32.257Z,4.40
2023-03-11T17:30:30.527Z,4.30
2023-03-11T17:33:01.993Z,4.30
2023-03-11T17:35:29.252Z,4.30
2023-03-11T17:37:56.406Z,4.30
2023-03-11T17:40:23.907Z,4.30
2023-03-11T17:42:51.058Z,4.30
2023-03-11T17:45:18.558Z,4.30
2023-03-11T17:47:45.702Z,4.20
2023-03-11T17:50:13.367Z,4.20
2023-03-11T17:52:40.966Z,4.10
2023-03-11T17:55:08.870Z,4.10
2023-03-11T17:57:45.197Z,4.10
2023-03-11T18:00:15.017Z,4.10
2023-03-11T18:02:42.684Z,4.00
2023-03-11T18:05:10.107Z,4.00
2023-03-11T18:07:41.205Z,4.00
2023-03-11T18:10:09.818Z,4.00
2023-03-11T18:12:38.091Z,4.00
2023-03-11T18:15:08.272Z,4.00
2023-03-11T18:17:35.716Z,4.00
2023-03-11T18:20:03.633Z,4.00
2023-03-11T18:22:30.922Z,3.90
2023-03-11T18:24:58.038Z,3.90
2023-03-11T18:27:25.370Z,3.90
2023-03-11T18:29:52.503Z,3.90
2023-03-11T18:32:20.975Z,3.90
2023-03-11T18:34:51.515Z,3.90
2023-03-11T18:37:18.924Z,3.90
2023-03-11T18:39:46.172Z,3.90
2023-03-11T18:42:14.288Z,3.90
2023-03-11T18:44:42.366Z,3.90
2023-03-11T18:47:09.617Z,3.90
2023-03-11T18:49:36.826Z,3.90
2023-03-11T18:52:04.174Z,3.90
2023-03-11T18:54:31.304Z,4.00
2023-03-11T18:56:58.542Z,3.90
2023-03-11T18:59:27.833Z,3.90
2023-03-11T19:01:55.289Z,3.90
2023-03-11T19:04:22.854Z,3.90
2023-03-11T19:06:50.500Z,3.90
2023-03-11T19:09:21.654Z,3.90
2023-03-11T19:11:48.940Z,3.90
2023-03-11T19:14:16.385Z,3.80
2023-03-11T19:16:43.809Z,3.80
2023-03-11T19:19:12.063Z,3.80
2023-03-11T19:21:39.670Z,3.80
2023-03-11T19:24:07.357Z,3.80
2023-03-11T19:26:44.655Z,3.80
2023-03-11T19:29:13.809Z,3.80
2023-03-11T19:31:41.269Z,3.80
2023-03-11T19:34:08.661Z,3.80
2023-03-11T19:36:36.016Z,3.80
2023-03-11T19:39:03.740Z,3.80
2023-03-11T19:41:30.884Z,3.80
2023-03-11T19:43:58.476Z,3.80
2023-03-11T19:46:25.980Z,3.80
2023-03-11T19:48:56.844Z,3.80
2023-03-11T19:51:26.652Z,3.80
2023-03-11T19:53:55.758Z,3.80
2023-03-11T19:56:23.335Z,3.80
2023-03-11T19:58:50.877Z,3.80
2023-03-11T20:01:19.611Z,3.80
2023-03-11T20:03:47.791Z,3.80
2023-03-11T20:06:18.654Z,3.80
2023-03-11T20:08:46.509Z,3.80
2023-03-11T20:11:13.926Z,3.80
2023-03-11T20:13:44.165Z,3.80
2023-03-11T20:16:17.373Z,3.80
2023-03-11T20:18:48.599Z,3.80
2023-03-11T20:21:16.002Z,3.80
2023-03-11T20:23:43.408Z,3.80
2023-03-11T20:26:13.775Z,3.80
2023-03-11T20:28:41.627Z,3.80
2023-03-11T20:31:28.288Z,3.90
2023-03-11T20:33:56.986Z,3.90
2023-03-11T20:36:27.772Z,3.90
2023-03-11T20:38:56.165Z,4.00
2023-03-11T20:41:24.908Z,3.90
2023-03-11T20:43:57.046Z,3.90
2023-03-11T20:46:24.533Z,4.00
2023-03-11T20:48:52.172Z,4.00
2023-03-11T20:51:20.980Z,4.00
2023-03-11T20:53:49.159Z,4.00
2023-03-11T20:56:19.486Z,4.00
2023-03-11T20:58:51.031Z,4.00
2023-03-11T21:01:30.544Z,4.00
2023-03-11T21:04:01.092Z,4.00
2023-03-11T21:06:36.370Z,4.00
2023-03-11T21:09:07.158Z,4.00
2023-03-11T21:11:35.062Z,4.00
2023-03-11T21:14:03.381Z,4.00
2023-03-11T21:16:31.079Z,4.00
2023-03-11T21:18:58.658Z,4.00
2023-03-11T21:21:25.942Z,4.00
2023-03-11T21:23:53.465Z,4.00
2023-03-11T21:26:20.771Z,4.00
2023-03-11T21:28:48.093Z,4.00
2023-03-11T21:31:18.800Z,4.00
2023-03-11T21:33:47.320Z,4.00
2023-03-11T21:36:16.252Z,4.10
2023-03-11T21:38:44.046Z,4.00
2023-03-11T21:41:15.911Z,4.00
2023-03-11T21:43:44.596Z,4.00
2023-03-11T21:46:15.288Z,4.00
2023-03-11T21:48:43.171Z,4.00
2023-03-11T21:51:10.458Z,4.00
2023-03-11T21:53:37.860Z,4.00
2023-03-11T21:56:05.868Z,4.00
2023-03-11T21:58:33.879Z,4.00
2023-03-11T22:01:01.754Z,4.00
2023-03-11T22:03:30.851Z,4.00
2023-03-11T22:06:03.465Z,4.00
2023-03-11T22:08:30.946Z,4.00
2023-03-11T22:10:58.267Z,4.00
2023-03-11T22:13:25.875Z,4.00
2023-03-11T22:15:53.330Z,4.00
2023-03-11T22:18:20.778Z,4.10
2023-03-11T22:20:48.104Z,4.10
2023-03-11T22:23:15.497Z,4.10
2023-03-11T22:25:43.102Z,4.10
2023-03-11T22:28:13.064Z,4.10
2023-03-11T22:30:40.449Z,4.10
2023-03-11T22:33:07.845Z,4.10
2023-03-11T22:35:35.228Z,4.20
2023-03-11T22:38:03.028Z,4.20
2023-03-11T22:40:30.318Z,4.20
2023-03-11T22:42:57.879Z,4.20
2023-03-11T22:45:25.061Z,4.20
2023-03-11T22:47:53.402Z,4.20
2023-03-11T22:50:21.279Z,4.20
2023-03-11T22:52:48.565Z,4.30
2023-03-11T22:55:16.028Z,4.30
2023-03-11T22:57:43.402Z,4.20
2023-03-11T23:00:17.389Z,4.10
2023-03-11T23:02:46.203Z,4.00
2023-03-11T23:05:15.509Z,3.80
2023-03-11T23:07:42.777Z,3.70
2023-03-11T23:10:12.205Z,3.60
2023-03-11T23:12:39.837Z,3.40
2023-03-11T23:15:10.583Z,3.20
2023-03-11T23:17:37.857Z,3.10
2023-03-11T23:20:06.564Z,3.00
2023-03-11T23:22:38.732Z,2.90
2023-03-11T23:25:08.889Z,2.90
2023-03-11T23:27:36.589Z,2.80
2023-03-11T23:30:04.537Z,2.80
2023-03-11T23:32:31.878Z,2.80
2023-03-11T23:34:59.228Z,2.80
2023-03-11T23:37:26.420Z,2.80
2023-03-11T23:39:53.743Z,2.80
2023-03-11T23:42:25.830Z,2.80
2023-03-11T23:44:54.082Z,2.70
2023-03-11T23:47:23.035Z,2.70
2023-03-11T23:49:50.160Z,2.70
2023-03-11T23:52:17.451Z,2.70
2023-03-11T23:54:44.520Z,2.60
2023-03-11T23:57:11.720Z,2.60
2023-03-11T23:59:38.848Z,2.60
